Time;durP1;ratioP1;P1;durP2;ratioP2;P2;SDS_P1;SDS_P2;PMS_P1;PMS_P2;Temp;Humidity;BMP_temperature;BMP_pressure;BME280_temperature;BME280_humidity;BME280_pressure;Samples;Min_cycle;Max_cycle;Signal;HPM_P1;HPM_P2
2022/04/30 00:00:40;;;;;;;6.20;4.60;;;14.30;99.90;;;;;;5033448;28;20414;-89
2022/04/30 00:03:07;;;;;;;7.17;5.30;;;14.30;99.90;;;;;;5033870;28;20201;-92
2022/04/30 00:05:34;;;;;;;7.00;5.20;;;14.30;99.90;;;;;;5034309;28;20927;-88
2022/04/30 00:08:02;;;;;;;11.10;5.30;;;14.20;99.90;;;;;;5052072;28;20446;-88
2022/04/30 00:10:28;;;;;;;8.37;5.80;;;14.20;99.90;;;;;;5026390;28;20468;-88
2022/04/30 00:12:54;;;;;;;5.67;4.47;;;14.20;99.90;;;;;;5031368;28;20479;-91
2022/04/30 00:15:20;;;;;;;5.63;4.50;;;14.20;99.90;;;;;;5099948;28;20473;-91
2022/04/30 00:17:46;;;;;;;6.17;4.53;;;14.10;99.90;;;;;;5032673;28;20670;-92
2022/04/30 00:20:13;;;;;;;7.50;4.97;;;14.10;99.90;;;;;;5033113;28;20396;-86
2022/04/30 00:22:38;;;;;;;5.73;5.03;;;14.00;99.90;;;;;;5014623;28;20454;-92
2022/04/30 00:25:05;;;;;;;7.53;5.00;;;14.10;99.90;;;;;;5015417;28;20776;-88
2022/04/30 00:27:34;;;;;;;6.57;5.80;;;14.00;99.90;;;;;;5084580;28;20247;-92
2022/04/30 00:30:00;;;;;;;6.77;5.03;;;14.00;99.90;;;;;;5080085;28;20523;-87
2022/04/30 00:32:26;;;;;;;8.07;5.80;;;14.00;99.90;;;;;;5080756;28;20926;-88
2022/04/30 00:34:51;;;;;;;8.70;5.20;;;13.90;99.90;;;;;;5088119;28;20416;-88
2022/04/30 00:37:17;;;;;;;8.20;5.80;;;13.90;99.90;;;;;;5079407;28;20452;-92
2022/04/30 00:39:43;;;;;;;6.63;4.80;;;13.90;99.90;;;;;;5091326;28;20202;-91
2022/04/30 00:42:12;;;;;;;8.00;5.10;;;13.90;99.90;;;;;;5021418;28;20206;-88
2022/04/30 00:44:38;;;;;;;6.40;5.20;;;13.90;99.90;;;;;;5082652;28;20187;-87
2022/04/30 00:47:04;;;;;;;6.67;5.67;;;13.90;99.90;;;;;;5082943;28;20467;-87
2022/04/30 00:49:30;;;;;;;5.50;4.97;;;13.90;99.90;;;;;;5014647;28;20417;-91
2022/04/30 00:52:01;;;;;;;5.17;4.30;;;13.90;99.90;;;;;;5082668;28;20596;-88
2022/04/30 00:54:32;;;;;;;6.70;4.83;;;14.00;99.90;;;;;;5014786;28;20470;-88
2022/04/30 00:57:01;;;;;;;5.37;4.87;;;14.00;99.90;;;;;;5083461;28;20463;-92
2022/04/30 00:59:29;;;;;;;6.50;4.80;;;14.00;99.90;;;;;;5083342;28;20435;-88
2022/04/30 01:01:59;;;;;;;7.13;5.30;;;14.10;99.90;;;;;;5082867;28;20535;-92
2022/04/30 01:04:25;;;;;;;6.87;5.00;;;14.10;99.90;;;;;;5083537;28;20440;-89
2022/04/30 01:07:04;;;;;;;6.90;5.20;;;14.10;99.90;;;;;;5083095;28;20483;-86
2022/04/30 01:09:34;;;;;;;5.77;4.50;;;14.10;99.90;;;;;;5014861;28;20508;-91
2022/04/30 01:12:02;;;;;;;6.43;5.20;;;14.00;99.90;;;;;;5014891;28;20533;-87
2022/04/30 01:14:31;;;;;;;6.57;5.37;;;14.00;99.90;;;;;;5082874;28;20411;-87
2022/04/30 01:17:06;;;;;;;7.10;5.20;;;14.00;99.90;;;;;;5082806;28;20460;-91
2022/04/30 01:19:36;;;;;;;5.67;5.00;;;13.90;99.90;;;;;;4996814;28;20400;-87
2022/04/30 01:22:08;;;;;;;7.67;5.50;;;13.90;99.90;;;;;;5014028;28;20440;-87
2022/04/30 01:24:34;;;;;;;6.43;5.80;;;13.90;99.90;;;;;;5082483;28;20987;-86
2022/04/30 01:27:01;;;;;;;7.40;5.87;;;13.80;99.90;;;;;;5024417;28;20447;-90
2022/04/30 01:29:33;;;;;;;8.57;5.57;;;13.80;99.90;;;;;;5102062;28;20416;-91
2022/04/30 01:37:29;;;;;;;6.70;5.40;;;13.70;99.90;;;;;;5035338;28;20451;-87
2022/04/30 01:40:03;;;;;;;5.63;4.90;;;13.60;99.90;;;;;;5103709;28;20837;-86
2022/04/30 01:42:35;;;;;;;5.90;4.57;;;13.60;99.90;;;;;;5017404;28;20539;-91
2022/04/30 01:45:04;;;;;;;6.60;5.13;;;13.50;99.90;;;;;;5034361;28;20389;-87
2022/04/30 01:47:32;;;;;;;6.10;5.27;;;13.50;99.90;;;;;;5035060;28;20758;-87
2022/04/30 01:49:58;;;;;;;7.73;4.97;;;13.50;99.90;;;;;;5044856;28;20408;-91
2022/04/30 01:52:24;;;;;;;7.63;5.47;;;13.40;99.90;;;;;;5032702;28;21036;-86
2022/04/30 01:54:49;;;;;;;5.93;5.33;;;13.30;99.90;;;;;;5101543;28;20178;-91
2022/04/30 01:57:23;;;;;;;7.20;6.00;;;13.20;99.90;;;;;;5033494;28;20198;-91
2022/04/30 01:59:53;;;;;;;7.60;6.10;;;13.20;99.90;;;;;;5035718;28;20163;-86
2022/04/30 02:02:21;;;;;;;5.80;5.20;;;13.10;99.90;;;;;;5114177;28;20432;-91
2022/04/30 02:04:47;;;;;;;7.90;5.83;;;13.00;99.90;;;;;;5033038;28;20400;-86
2022/04/30 02:07:13;;;;;;;8.10;6.00;;;12.90;99.90;;;;;;5033232;28;20522;-87
2022/04/30 02:09:38;;;;;;;5.57;4.90;;;12.90;99.90;;;;;;5101611;28;20178;-87
2022/04/30 02:12:04;;;;;;;7.57;5.90;;;12.80;99.90;;;;;;5035235;28;20534;-91
2022/04/30 02:14:32;;;;;;;10.68;5.40;;;12.70;99.90;;;;;;5035324;28;20726;-87
2022/04/30 02:17:00;;;;;;;6.85;5.75;;;12.70;99.90;;;;;;5035917;28;20212;-91
2022/04/30 02:19:28;;;;;;;11.73;5.90;;;12.60;99.90;;;;;;5035373;28;20205;-91
2022/04/30 02:21:57;;;;;;;6.63;5.95;;;12.60;99.90;;;;;;5053031;28;20443;-91
2022/04/30 02:24:28;;;;;;;6.83;5.50;;;12.50;99.90;;;;;;5035506;28;20184;-92
2022/04/30 02:26:54;;;;;;;8.10;5.80;;;12.40;99.90;;;;;;5025599;28;20814;-87
2022/04/30 02:29:20;;;;;;;5.85;5.25;;;12.40;99.90;;;;;;5016211;28;20408;-91
2022/04/30 02:31:46;;;;;;;7.73;6.10;;;12.40;99.90;;;;;;5035451;28;20716;-92
2022/04/30 02:34:12;;;;;;;6.35;4.95;;;12.40;99.90;;;;;;5016218;28;20415;-87
2022/04/30 02:36:38;;;;;;;6.25;5.53;;;12.40;99.90;;;;;;5016133;28;20206;-87
2022/04/30 02:39:04;;;;;;;9.30;6.13;;;12.30;99.90;;;;;;5033869;28;20175;-87
2022/04/30 02:41:52;;;;;;;6.80;6.10;;;12.30;99.90;;;;;;5034372;28;20202;-87
2022/04/30 02:44:18;;;;;;;7.45;5.65;;;12.30;99.90;;;;;;5035133;28;20184;-91
2022/04/30 02:46:44;;;;;;;7.07;5.63;;;12.30;99.90;;;;;;5017309;28;20206;-92
2022/04/30 02:49:09;;;;;;;12.20;5.70;;;12.30;99.90;;;;;;5034805;28;20175;-90
2022/04/30 02:51:35;;;;;;;8.30;5.97;;;12.30;99.90;;;;;;5033805;28;20259;-87
2022/04/30 02:54:01;;;;;;;8.10;5.90;;;12.30;99.90;;;;;;5034836;28;20205;-91
2022/04/30 02:56:28;;;;;;;7.33;5.87;;;12.20;99.90;;;;;;5035423;28;20523;-92
2022/04/30 03:01:51;;;;;;;9.90;5.95;;;12.20;99.90;;;;;;4989816;28;20679;-87
2022/04/30 03:04:17;;;;;;;6.47;5.17;;;12.10;99.90;;;;;;5033790;28;20175;-87
2022/04/30 03:06:46;;;;;;;8.70;6.30;;;12.10;99.90;;;;;;5016563;28;20259;-91
2022/04/30 03:09:12;;;;;;;9.63;6.30;;;12.00;99.90;;;;;;5020817;28;20182;-88
2022/04/30 03:11:38;;;;;;;8.93;6.85;;;12.00;99.90;;;;;;5032825;28;20666;-91
2022/04/30 03:14:03;;;;;;;8.60;5.87;;;11.90;99.90;;;;;;5032617;28;20202;-87
2022/04/30 03:21:59;;;;;;;9.43;6.10;;;11.80;99.90;;;;;;5032703;28;20252;-88
2022/04/30 03:24:27;;;;;;;7.70;6.80;;;11.80;99.90;;;;;;5048285;28;20586;-88
2022/04/30 03:26:52;;;;;;;8.65;6.20;;;11.80;99.90;;;;;;5050327;28;20446;-88
2022/04/30 03:29:19;;;;;;;9.43;6.80;;;11.70;99.90;;;;;;5051879;28;20188;-86
2022/04/30 03:31:45;;;;;;;6.47;5.32;;;11.70;99.90;;;;;;5034378;28;20588;-91
2022/04/30 03:34:14;;;;;;;10.25;6.05;;;11.70;99.90;;;;;;5034827;28;20242;-91
2022/04/30 03:36:39;;;;;;;6.80;5.45;;;11.60;99.90;;;;;;5052787;28;20588;-92
2022/04/30 03:39:05;;;;;;;6.67;5.80;;;11.60;99.90;;;;;;5035205;28;20178;-88
2022/04/30 03:41:31;;;;;;;6.83;6.13;;;11.50;99.90;;;;;;5052022;28;20903;-92
2022/04/30 03:43:57;;;;;;;8.77;6.53;;;11.50;99.90;;;;;;5052562;28;20779;-91
2022/04/30 03:46:23;;;;;;;8.20;6.20;;;11.50;99.90;;;;;;5034561;28;20431;-87
2022/04/30 03:48:53;;;;;;;9.43;6.60;;;11.50;99.90;;;;;;5052312;28;20411;-89
2022/04/30 03:51:21;;;;;;;9.65;6.80;;;11.50;99.90;;;;;;5052160;28;20184;-88
2022/04/30 03:53:46;;;;;;;9.02;6.25;;;11.50;99.90;;;;;;5052303;28;20225;-91
2022/04/30 03:56:12;;;;;;;10.70;6.77;;;11.50;99.90;;;;;;5034152;28;20178;-92
2022/04/30 03:58:38;;;;;;;10.63;6.20;;;11.50;99.90;;;;;;5035005;28;20438;-88
2022/04/30 04:01:04;;;;;;;11.30;6.60;;;11.50;99.90;;;;;;5047364;28;20390;-92
2022/04/30 04:03:30;;;;;;;8.47;7.00;;;11.50;99.90;;;;;;5042203;28;20762;-88
2022/04/30 04:05:57;;;;;;;8.67;6.73;;;11.50;99.90;;;;;;5036298;28;20890;-88
2022/04/30 04:08:22;;;;;;;10.15;6.95;;;11.50;99.90;;;;;;5041653;28;20443;-90
2022/04/30 04:10:48;;;;;;;10.37;6.90;;;11.50;99.90;;;;;;5029291;28;20234;-91
2022/04/30 04:18:42;;;;;;;10.23;7.85;;;11.50;99.90;;;;;;5035118;28;20216;-87
2022/04/30 04:21:08;;;;;;;9.77;7.73;;;11.60;99.90;;;;;;5104126;28;20175;-86
2022/04/30 04:26:36;;;;;;;7.40;6.70;;;11.60;99.90;;;;;;5048565;28;20186;-87
2022/04/30 04:29:02;;;;;;;8.37;7.17;;;11.60;99.90;;;;;;5070302;28;20183;-88
2022/04/30 04:31:27;;;;;;;8.18;7.03;;;11.70;99.90;;;;;;5082965;28;20212;-91
2022/04/30 04:33:53;;;;;;;9.03;7.63;;;11.70;99.90;;;;;;5014589;28;20187;-88
2022/04/30 04:36:19;;;;;;;9.43;6.80;;;11.80;99.90;;;;;;5083134;28;20278;-86
2022/04/30 04:38:45;;;;;;;8.60;6.37;;;11.80;99.90;;;;;;5083222;28;20199;-88
2022/04/30 04:41:10;;;;;;;7.20;6.30;;;11.80;99.90;;;;;;5082640;28;20959;-91
2022/04/30 04:43:36;;;;;;;8.70;7.07;;;11.90;99.90;;;;;;5014486;28;20407;-91
2022/04/30 04:46:02;;;;;;;13.60;6.87;;;11.90;99.90;;;;;;5014326;28;20194;-92
2022/04/30 04:48:31;;;;;;;8.20;7.40;;;12.00;99.90;;;;;;5014911;28;20199;-86
2022/04/30 04:50:58;;;;;;;7.78;5.85;;;12.00;99.90;;;;;;5082966;28;20783;-88
2022/04/30 04:53:24;;;;;;;11.65;7.82;;;12.10;99.90;;;;;;5015212;28;20222;-87
2022/04/30 04:55:50;;;;;;;9.88;6.65;;;12.10;99.90;;;;;;5083292;28;20179;-90
2022/04/30 04:58:16;;;;;;;10.00;7.50;;;12.20;99.90;;;;;;5083605;28;20214;-88
2022/04/30 05:00:42;;;;;;;8.03;6.90;;;12.20;99.90;;;;;;5082941;28;20179;-87
2022/04/30 05:03:08;;;;;;;9.35;7.70;;;12.30;99.90;;;;;;5016452;28;20965;-87
2022/04/30 05:05:35;;;;;;;8.77;7.87;;;12.30;99.90;;;;;;5084105;28;20179;-87
2022/04/30 05:08:00;;;;;;;10.85;6.97;;;12.40;99.90;;;;;;5017019;28;20203;-92
2022/04/30 05:10:26;;;;;;;11.03;7.30;;;12.40;99.90;;;;;;5071275;28;20237;-87
2022/04/30 05:12:52;;;;;;;9.80;7.60;;;12.50;99.90;;;;;;5018616;28;20240;-88
2022/04/30 05:15:18;;;;;;;9.60;6.90;;;12.50;99.90;;;;;;5024169;28;20233;-88
2022/04/30 05:17:43;;;;;;;9.20;7.47;;;12.60;99.90;;;;;;5032042;28;20182;-92
2022/04/30 05:20:09;;;;;;;11.37;7.67;;;12.70;99.90;;;;;;5033905;28;20179;-92
2022/04/30 05:22:35;;;;;;;10.90;8.23;;;12.70;99.90;;;;;;5016214;28;20206;-93
2022/04/30 05:25:01;;;;;;;12.33;7.90;;;12.80;99.90;;;;;;5016854;28;20178;-88
2022/04/30 05:27:26;;;;;;;8.93;6.40;;;12.90;99.90;;;;;;5015165;28;20235;-88
2022/04/30 05:29:52;;;;;;;12.03;7.47;;;12.90;99.90;;;;;;5016836;28;20170;-87
2022/04/30 05:32:18;;;;;;;10.83;8.17;;;13.00;99.90;;;;;;5016481;28;20234;-92
2022/04/30 05:34:43;;;;;;;9.67;7.40;;;13.00;99.90;;;;;;5017131;28;20174;-90
2022/04/30 05:37:09;;;;;;;12.30;7.90;;;13.10;99.90;;;;;;5017010;28;20233;-91
2022/04/30 05:39:35;;;;;;;11.90;8.43;;;13.20;99.90;;;;;;5034970;28;20170;-87
2022/04/30 05:42:00;;;;;;;8.83;6.67;;;13.30;99.90;;;;;;5017545;28;20279;-88
2022/04/30 05:44:26;;;;;;;8.90;7.50;;;13.40;99.90;;;;;;5018211;28;20700;-89
2022/04/30 05:46:52;;;;;;;10.23;7.70;;;13.40;99.90;;;;;;5017191;28;20202;-93
2022/04/30 05:49:18;;;;;;;9.23;6.93;;;13.50;99.90;;;;;;5019329;28;20499;-91
2022/04/30 05:51:43;;;;;;;10.60;7.00;;;13.60;99.90;;;;;;5036307;28;20629;-88
2022/04/30 05:54:09;;;;;;;8.17;6.70;;;13.70;99.90;;;;;;5036878;28;20688;-89
2022/04/30 05:56:35;;;;;;;8.60;6.90;;;13.80;99.90;;;;;;5040220;28;20213;-92
2022/04/30 05:59:01;;;;;;;8.73;6.63;;;14.00;99.90;;;;;;5016209;28;20792;-88
2022/04/30 06:01:27;;;;;;;10.70;7.60;;;14.00;99.90;;;;;;5033513;28;20412;-93
2022/04/30 06:03:53;;;;;;;11.93;7.67;;;14.10;99.90;;;;;;5016106;28;20182;-89
2022/04/30 06:06:20;;;;;;;8.67;6.97;;;14.20;99.90;;;;;;5034215;28;20406;-87
2022/04/30 06:08:47;;;;;;;9.43;6.27;;;14.30;99.90;;;;;;5015331;28;20500;-88
2022/04/30 06:11:13;;;;;;;11.47;7.97;;;14.40;99.90;;;;;;5032813;28;20542;-92
2022/04/30 06:13:39;;;;;;;8.80;7.70;;;14.50;99.90;;;;;;5015517;28;20436;-92
2022/04/30 06:16:05;;;;;;;16.40;7.83;;;14.60;99.90;;;;;;5015731;28;20491;-92
2022/04/30 06:18:31;;;;;;;7.00;5.83;;;14.60;99.90;;;;;;5015665;28;20432;-88
2022/04/30 06:20:57;;;;;;;7.70;6.40;;;14.70;99.90;;;;;;5015536;28;20186;-88
2022/04/30 06:23:23;;;;;;;9.23;6.30;;;14.80;99.90;;;;;;5014894;28;20493;-87
2022/04/30 06:25:48;;;;;;;8.03;6.60;;;14.90;99.90;;;;;;5015750;28;20406;-91
2022/04/30 06:28:15;;;;;;;13.73;6.00;;;15.00;99.90;;;;;;5035203;28;20541;-88
2022/04/30 06:30:43;;;;;;;8.37;6.17;;;15.10;99.90;;;;;;5035103;28;20757;-88
2022/04/30 06:33:09;;;;;;;6.97;6.07;;;15.20;99.90;;;;;;5053167;28;20567;-93
2022/04/30 06:35:36;;;;;;;6.30;5.70;;;15.30;99.90;;;;;;5052694;28;20403;-90
2022/04/30 06:38:02;;;;;;;8.03;5.73;;;15.40;99.90;;;;;;5034069;28;20280;-91
2022/04/30 06:40:28;;;;;;;9.47;5.93;;;15.50;99.90;;;;;;5052615;28;20435;-88
2022/04/30 06:42:55;;;;;;;8.63;5.27;;;15.60;99.90;;;;;;5034679;28;20797;-92
2022/04/30 06:45:20;;;;;;;6.17;5.40;;;15.70;99.90;;;;;;5035022;28;20939;-87
2022/04/30 06:47:46;;;;;;;8.03;5.40;;;15.70;99.90;;;;;;5035490;28;20454;-93
2022/04/30 06:50:12;;;;;;;6.63;4.20;;;15.90;99.90;;;;;;5035434;28;20181;-88
2022/04/30 06:58:07;;;;;;;8.30;4.10;;;16.20;99.90;;;;;;5053520;28;20973;-92
2022/04/30 07:03:19;;;;;;;7.27;4.87;;;16.40;99.90;;;;;;5054705;28;20933;-92
2022/04/30 07:05:46;;;;;;;10.90;4.10;;;16.50;99.90;;;;;;5064373;28;20414;-90
2022/04/30 07:08:11;;;;;;;6.37;4.70;;;16.60;99.90;;;;;;5068467;28;20466;-87
2022/04/30 07:10:37;;;;;;;4.53;3.53;;;16.70;99.90;;;;;;5051797;28;20462;-88
2022/04/30 07:13:03;;;;;;;4.10;3.17;;;16.80;99.90;;;;;;5034100;28;20229;-87
2022/04/30 07:15:28;;;;;;;3.80;3.40;;;17.00;99.90;;;;;;5051971;28;20631;-87
2022/04/30 07:17:54;;;;;;;4.83;3.40;;;17.00;99.90;;;;;;5033868;28;20201;-92
2022/04/30 07:20:20;;;;;;;4.20;3.50;;;17.10;99.90;;;;;;5052331;28;20294;-91
2022/04/30 07:22:45;;;;;;;5.97;4.10;;;17.20;99.90;;;;;;5035214;28;20238;-92
2022/04/30 07:25:11;;;;;;;4.13;3.73;;;17.30;99.90;;;;;;5034913;28;20184;-87
2022/04/30 07:27:37;;;;;;;7.50;5.10;;;17.40;99.90;;;;;;5015384;28;20207;-92
2022/04/30 07:30:03;;;;;;;4.07;3.67;;;17.50;99.90;;;;;;5011340;28;20178;-87
2022/04/30 07:32:29;;;;;;;6.37;4.60;;;17.60;99.90;;;;;;5012901;28;20276;-87
2022/04/30 07:34:55;;;;;;;4.57;3.77;;;17.70;99.90;;;;;;5011667;28;20412;-88
2022/04/30 07:37:20;;;;;;;7.30;4.77;;;17.70;99.90;;;;;;5011800;28;20211;-93
2022/04/30 07:39:46;;;;;;;8.13;4.30;;;17.80;99.90;;;;;;5011773;28;20404;-89
2022/04/30 07:42:12;;;;;;;5.50;4.33;;;17.90;99.90;;;;;;5013361;28;20206;-93
2022/04/30 07:44:38;;;;;;;5.47;3.83;;;18.00;99.90;;;;;;5011663;28;20176;-88
2022/04/30 07:47:05;;;;;;;5.67;4.80;;;18.00;99.90;;;;;;5012362;28;20206;-88
2022/04/30 07:49:31;;;;;;;9.00;5.00;;;18.10;99.90;;;;;;5011745;28;20418;-87
2022/04/30 07:51:57;;;;;;;6.30;4.83;;;18.20;99.90;;;;;;5012526;28;20583;-87
2022/04/30 07:54:23;;;;;;;5.43;4.17;;;18.20;99.90;;;;;;5015253;28;20497;-88
2022/04/30 07:56:54;;;;;;;7.20;5.90;;;18.30;99.90;;;;;;5010584;28;20210;-93
2022/04/30 07:59:21;;;;;;;7.33;6.00;;;18.40;99.90;;;;;;5012858;28;20435;-88
2022/04/30 08:01:47;;;;;;;7.37;5.80;;;18.50;99.90;;;;;;4997811;28;20468;-88
2022/04/30 08:04:13;;;;;;;7.50;5.73;;;18.50;99.90;;;;;;5005136;28;20437;-87
2022/04/30 08:06:38;;;;;;;8.83;5.57;;;18.60;99.90;;;;;;5007921;28;20996;-93
2022/04/30 08:09:04;;;;;;;8.60;6.73;;;18.70;99.90;;;;;;5014624;28;20226;-88
2022/04/30 08:11:30;;;;;;;7.03;5.37;;;18.80;99.90;;;;;;5031282;28;20296;-88
2022/04/30 08:13:56;;;;;;;9.40;6.43;;;18.90;99.90;;;;;;5030356;28;20186;-94
2022/04/30 08:16:22;;;;;;;8.70;5.70;;;18.90;99.90;;;;;;5014901;28;21015;-88
2022/04/30 08:18:48;;;;;;;8.33;6.30;;;19.00;99.90;;;;;;5014785;28;20184;-94
2022/04/30 08:21:14;;;;;;;7.23;6.03;;;19.10;99.90;;;;;;5009189;28;20425;-94
2022/04/30 08:23:39;;;;;;;8.30;6.00;;;19.20;99.90;;;;;;5014375;28;20960;-89
2022/04/30 08:26:05;;;;;;;9.93;6.67;;;19.30;99.90;;;;;;5011788;28;22275;-92
2022/04/30 08:28:31;;;;;;;9.97;7.20;;;19.40;99.90;;;;;;5030216;28;20696;-87
2022/04/30 08:30:58;;;;;;;9.13;6.03;;;19.40;99.90;;;;;;5031059;28;20191;-87
2022/04/30 08:33:24;;;;;;;9.13;6.67;;;19.50;99.90;;;;;;5014605;28;20481;-87
2022/04/30 08:35:50;;;;;;;9.50;7.03;;;19.60;99.90;;;;;;5033468;28;20407;-91
2022/04/30 08:38:16;;;;;;;5.80;4.87;;;19.70;99.90;;;;;;5043011;27;20955;-88
2022/04/30 08:40:44;;;;;;;8.90;6.47;;;19.80;99.90;;;;;;5013701;28;20197;-91
2022/04/30 08:43:13;;;;;;;6.80;5.70;;;19.90;99.90;;;;;;5012408;28;20212;-86
2022/04/30 08:45:41;;;;;;;6.60;5.10;;;20.00;99.90;;;;;;5013972;28;20450;-87
2022/04/30 08:48:08;;;;;;;9.00;5.73;;;20.10;99.90;;;;;;5031176;28;20469;-92
2022/04/30 08:50:34;;;;;;;5.83;5.20;;;20.20;99.90;;;;;;5013685;28;20843;-87
2022/04/30 08:53:00;;;;;;;9.33;5.70;;;20.30;99.90;;;;;;5031546;28;20486;-92
2022/04/30 08:55:25;;;;;;;9.83;6.33;;;20.50;99.90;;;;;;5013303;28;20184;-92
2022/04/30 08:57:51;;;;;;;6.07;5.23;;;20.50;99.90;;;;;;5013176;28;20451;-87
2022/04/30 09:00:17;;;;;;;6.93;5.07;;;20.60;99.90;;;;;;5013971;28;20181;-88
2022/04/30 09:02:55;;;;;;;7.10;5.60;;;20.70;99.90;;;;;;5016467;28;20205;-92
2022/04/30 09:05:22;;;;;;;6.90;5.10;;;20.70;99.90;;;;;;5016208;28;20427;-87
2022/04/30 09:07:59;;;;;;;5.97;4.17;;;20.80;99.90;;;;;;5016465;28;20577;-92
2022/04/30 09:10:30;;;;;;;5.73;4.50;;;20.90;99.90;;;;;;5034013;28;20993;-92
2022/04/30 09:13:05;;;;;;;5.23;4.10;;;20.90;99.90;;;;;;5016036;28;20487;-89
2022/04/30 09:15:31;;;;;;;6.30;3.97;;;21.00;99.90;;;;;;5034023;28;20408;-87
2022/04/30 09:17:58;;;;;;;6.53;4.60;;;21.10;99.90;;;;;;5034625;28;20825;-91
2022/04/30 09:20:25;;;;;;;5.53;4.30;;;21.20;99.90;;;;;;5017843;28;20407;-92
2022/04/30 09:22:51;;;;;;;7.83;4.20;;;21.20;99.90;;;;;;5018449;28;20538;-91
2022/04/30 09:25:18;;;;;;;4.87;3.87;;;21.20;99.90;;;;;;5017221;28;20422;-91
2022/04/30 09:27:46;;;;;;;6.03;4.50;;;21.20;99.90;;;;;;5033801;28;20461;-91
2022/04/30 09:30:17;;;;;;;6.30;4.33;;;21.20;99.90;;;;;;5036917;28;20787;-93
2022/04/30 09:32:42;;;;;;;3.20;2.90;;;21.30;99.90;;;;;;5039551;28;20561;-92
2022/04/30 09:38:06;;;;;;;4.90;2.90;;;21.30;99.90;;;;;;5053777;28;20227;-88
2022/04/30 09:40:32;;;;;;;2.93;2.73;;;21.40;99.90;;;;;;5053664;28;20499;-88
2022/04/30 09:43:00;;;;;;;3.97;2.90;;;21.40;99.90;;;;;;5036833;28;20491;-88
2022/04/30 09:45:34;;;;;;;4.70;2.90;;;21.50;99.90;;;;;;5036107;28;21041;-92
2022/04/30 09:53:55;;;;;;;3.97;3.60;;;21.50;99.90;;;;;;5054427;28;20430;-93
2022/04/30 09:56:29;;;;;;;4.30;3.13;;;21.40;99.90;;;;;;5053820;28;20417;-87
2022/04/30 09:58:57;;;;;;;3.10;2.80;;;21.40;99.90;;;;;;5065038;27;20421;-93
2022/04/30 10:01:26;;;;;;;4.00;3.60;;;21.40;99.90;;;;;;5015142;28;20963;-87
2022/04/30 10:03:53;;;;;;;3.67;3.37;;;21.50;99.90;;;;;;5014553;28;20408;-86
2022/04/30 10:06:19;;;;;;;3.40;3.07;;;21.50;99.90;;;;;;5016625;28;20432;-92
2022/04/30 10:08:45;;;;;;;4.10;3.70;;;21.60;99.90;;;;;;5016307;28;20979;-87
2022/04/30 10:11:18;;;;;;;4.30;3.57;;;21.60;99.90;;;;;;5067948;28;20870;-86
2022/04/30 10:14:14;;;;;;;4.00;3.60;;;21.50;99.90;;;;;;5075443;28;20610;-87
2022/04/30 10:17:07;;;;;;;3.23;2.97;;;21.50;99.90;;;;;;5094176;28;20784;-87
2022/04/30 10:19:28;;;;;;;4.10;3.60;;;21.50;99.90;;;;;;5094282;28;20432;-87
2022/04/30 10:22:14;;;;;;;4.17;3.33;;;21.50;99.90;;;;;;5076091;28;20794;-87
2022/04/30 10:24:48;;;;;;;4.20;3.70;;;21.50;99.90;;;;;;5096045;28;20180;-91
2022/04/30 10:27:15;;;;;;;3.70;3.30;;;21.50;99.90;;;;;;5108258;28;20493;-87
2022/04/30 10:29:59;;;;;;;4.20;3.50;;;21.40;99.90;;;;;;5107691;27;20410;-91
2022/04/30 10:32:32;;;;;;;4.47;3.83;;;21.30;99.90;;;;;;5104127;28;20523;-86
2022/04/30 10:34:59;;;;;;;3.87;3.47;;;21.20;99.90;;;;;;5116871;28;20929;-92
2022/04/30 10:37:36;;;;;;;6.63;4.07;;;21.20;99.90;;;;;;5115278;28;20516;-87
2022/04/30 10:40:05;;;;;;;3.67;3.37;;;21.10;99.90;;;;;;5096181;28;20427;-88
2022/04/30 10:42:38;;;;;;;3.90;3.50;;;21.10;99.90;;;;;;5095681;28;20447;-88
2022/04/30 10:45:04;;;;;;;4.43;3.93;;;21.00;99.90;;;;;;5097404;28;20420;-88
2022/04/30 10:47:30;;;;;;;3.53;3.20;;;21.00;99.90;;;;;;5097140;28;20440;-93
2022/04/30 10:49:56;;;;;;;4.40;4.00;;;20.90;99.90;;;;;;5097649;28;20419;-92
2022/04/30 10:52:24;;;;;;;4.67;4.03;;;20.90;99.90;;;;;;5097102;28;20223;-92
2022/04/30 10:54:51;;;;;;;3.73;3.23;;;20.90;99.90;;;;;;5113252;28;20179;-93
2022/04/30 10:57:17;;;;;;;3.53;3.00;;;20.80;99.90;;;;;;5096535;28;20459;-93
2022/04/30 10:59:43;;;;;;;3.60;3.30;;;20.80;99.90;;;;;;5114839;28;20408;-87
2022/04/30 11:02:12;;;;;;;8.00;4.50;;;20.80;99.90;;;;;;5098959;28;21027;-87
2022/04/30 11:04:42;;;;;;;3.90;3.50;;;20.80;99.90;;;;;;5099811;28;20521;-94
2022/04/30 11:07:08;;;;;;;4.60;3.50;;;20.80;99.90;;;;;;5116271;28;20955;-89
2022/04/30 11:09:42;;;;;;;4.40;4.00;;;20.80;99.90;;;;;;5115033;28;20407;-88
2022/04/30 11:12:12;;;;;;;4.60;4.03;;;20.70;99.90;;;;;;4995609;28;20500;-87
2022/04/30 11:14:38;;;;;;;4.20;3.80;;;20.70;99.90;;;;;;4994628;28;20893;-87
2022/04/30 11:17:04;;;;;;;3.97;3.60;;;20.70;99.90;;;;;;5011324;28;20451;-87
2022/04/30 11:19:30;;;;;;;4.80;4.30;;;20.70;99.90;;;;;;4994256;28;20803;-87
2022/04/30 11:21:56;;;;;;;4.40;4.00;;;20.70;99.90;;;;;;4994795;28;20960;-87
2022/04/30 11:24:30;;;;;;;4.57;4.17;;;20.70;99.90;;;;;;4996374;28;20202;-91
2022/04/30 11:27:03;;;;;;;4.43;4.03;;;20.70;99.90;;;;;;4996029;28;20534;-93
2022/04/30 11:29:29;;;;;;;4.30;3.73;;;20.60;99.90;;;;;;4996358;28;20791;-88
2022/04/30 11:31:56;;;;;;;3.30;3.00;;;20.70;99.90;;;;;;5013777;28;20482;-88
2022/04/30 11:34:23;;;;;;;3.87;3.40;;;20.60;99.90;;;;;;4996162;28;20948;-88
2022/04/30 11:36:53;;;;;;;3.13;2.83;;;20.70;99.90;;;;;;5005561;28;20466;-87
2022/04/30 11:39:21;;;;;;;3.87;3.40;;;20.70;99.90;;;;;;5008614;28;20424;-90
2022/04/30 11:41:49;;;;;;;3.27;2.93;;;20.70;99.90;;;;;;5000175;28;20981;-92
2022/04/30 11:44:17;;;;;;;4.60;4.20;;;20.70;99.90;;;;;;5012077;28;20469;-88
2022/04/30 11:46:45;;;;;;;3.50;3.20;;;20.70;99.90;;;;;;5011730;28;20464;-92
2022/04/30 11:49:13;;;;;;;4.97;3.33;;;20.70;99.90;;;;;;4994558;28;20421;-93
2022/04/30 11:51:41;;;;;;;4.17;3.33;;;20.70;99.90;;;;;;4994381;28;20479;-94
2022/04/30 11:54:12;;;;;;;4.07;3.63;;;20.70;99.90;;;;;;4994559;28;20406;-88
2022/04/30 11:56:42;;;;;;;4.03;3.63;;;20.70;99.90;;;;;;4994644;28;20515;-88
2022/04/30 11:59:08;;;;;;;3.53;3.23;;;20.70;99.90;;;;;;4994138;28;20798;-88
2022/04/30 12:01:42;;;;;;;3.40;3.10;;;20.80;99.90;;;;;;4993871;28;20421;-92
2022/04/30 12:04:09;;;;;;;3.43;3.10;;;20.80;99.90;;;;;;4994088;28;20421;-93
2022/04/30 12:06:37;;;;;;;3.67;3.37;;;20.80;99.90;;;;;;4994525;28;20459;-88
2022/04/30 12:09:32;;;;;;;3.50;3.20;;;20.80;99.90;;;;;;4994296;28;20420;-88
2022/04/30 12:12:00;;;;;;;3.60;3.30;;;20.90;99.90;;;;;;5085484;28;20508;-88
2022/04/30 12:14:26;;;;;;;3.90;3.23;;;20.90;99.90;;;;;;5114702;28;20400;-87
2022/04/30 12:16:53;;;;;;;3.97;2.93;;;20.90;99.90;;;;;;5114627;28;20444;-90
2022/04/30 12:25:14;;;;;;;4.53;4.13;;;20.90;99.90;;;;;;5116294;28;20442;-88
2022/04/30 12:27:57;;;;;;;4.20;3.80;;;20.90;99.90;;;;;;5115575;28;20451;-93
2022/04/30 12:30:23;;;;;;;3.23;2.97;;;20.90;99.90;;;;;;5116125;28;20400;-93
2022/04/30 12:32:52;;;;;;;3.47;3.17;;;20.90;99.90;;;;;;5115537;28;20982;-88
2022/04/30 12:35:44;;;;;;;3.13;2.77;;;20.90;99.90;;;;;;5098423;28;20436;-92
2022/04/30 12:38:14;;;;;;;3.23;2.93;;;20.90;99.90;;;;;;5099283;28;20455;-88
2022/04/30 12:40:47;;;;;;;3.20;2.90;;;20.90;99.90;;;;;;5123988;28;20514;-88
2022/04/30 12:43:13;;;;;;;2.90;2.70;;;20.90;99.90;;;;;;5118581;28;20474;-93
2022/04/30 12:45:43;;;;;;;3.03;2.73;;;20.90;99.90;;;;;;5099826;28;20419;-90
2022/04/30 12:48:09;;;;;;;3.80;3.50;;;20.90;99.90;;;;;;5118464;28;20803;-88
2022/04/30 12:50:39;;;;;;;3.17;2.87;;;20.90;99.90;;;;;;5118161;28;20400;-87
2022/04/30 12:53:09;;;;;;;3.67;3.30;;;20.80;99.90;;;;;;5117823;28;21124;-87
2022/04/30 12:55:39;;;;;;;3.73;3.40;;;20.80;99.90;;;;;;5118289;28;20419;-92
2022/04/30 12:58:06;;;;;;;4.10;3.60;;;20.80;99.90;;;;;;5099740;28;20451;-87
2022/04/30 13:00:34;;;;;;;3.43;3.13;;;20.80;99.90;;;;;;5099675;28;20466;-91
2022/04/30 13:03:00;;;;;;;3.00;2.67;;;20.80;99.90;;;;;;5117502;28;20974;-91
2022/04/30 13:05:27;;;;;;;3.60;3.30;;;20.80;99.90;;;;;;5117957;28;20404;-87
2022/04/30 13:07:53;;;;;;;3.40;3.10;;;20.80;99.90;;;;;;5100175;28;20502;-88
2022/04/30 13:15:48;;;;;;;3.60;3.30;;;20.80;99.90;;;;;;5035606;28;20395;-92
2022/04/30 13:18:16;;;;;;;4.43;3.60;;;20.80;99.90;;;;;;5035468;28;20799;-92
2022/04/30 13:20:42;;;;;;;3.53;3.23;;;20.80;99.90;;;;;;5034477;28;20451;-91
2022/04/30 13:23:08;;;;;;;3.50;3.20;;;20.80;99.90;;;;;;5017562;28;20512;-88
2022/04/30 13:25:34;;;;;;;3.87;2.93;;;20.80;99.90;;;;;;5034724;28;20897;-88
2022/04/30 13:28:00;;;;;;;3.60;3.30;;;20.80;99.90;;;;;;5016966;28;20213;-93
2022/04/30 13:30:29;;;;;;;3.40;2.93;;;20.80;99.90;;;;;;5035926;28;20651;-92
2022/04/30 13:32:55;;;;;;;4.23;3.37;;;20.80;99.90;;;;;;5037634;28;20475;-92
2022/04/30 13:35:21;;;;;;;3.80;2.70;;;20.80;99.90;;;;;;5035573;28;20411;-93
2022/04/30 13:37:47;;;;;;;3.93;3.53;;;20.80;99.90;;;;;;5018433;28;20439;-94